Airfield :
LOGIN :

Register | Disclaimer

   EN    FR    IT 

 










Legend :    VFR   Marginal VFR   IFR   Intensive IFR   Very Intensive IFR
Visi :
Ceiling :
>= 8 km
>= 3000ft
5 to 8 km
1000 to 3000 ft
1500m to 5 km
500 to 1000 ft
800 to 1500m
200 to 500 ft
< 800m
< 200 ft
Symbols :   Thunderstorms  Fog  Heavy snow  Heavy precipitations  Wind > 20 kt
SIGMETs :     Misc.  Thunderstorms  Icing  Turbulence  Mountain Waves  Volcanic Ashes






- Airport Elevation : 26 ft
- IATA code : SYY


EGPO - Stornoway

CURRENT METAR :
  • 120520Z AUTO 36017KT 9999 -RA SCT013/// BKN018/// BKN029/// 07/06 Q0996

EXPIRED METARs :
  • 120450Z AUTO 01015KT 9999 SCT015/// BKN034/// BKN045/// 07/06 Q0996
  • 120420Z AUTO 01014KT 9999 BKN014/// BKN035/// 08/06 Q0995
  • 120350Z AUTO 01017KT 9999 SCT018/// BKN031/// BKN040/// 08/06 Q0995 RERA
  • 120320Z AUTO 01020KT 5000 -RA FEW007/// BKN012/// BKN023/// 07/06 Q0995 RERA
  • 120250Z AUTO 01020KT 9000 -RA FEW016/// SCT026/// BKN037/// 08/06 Q0994

TAF TAF EGPO
Valid from the 12 at 06:00 until the 12 at 15:00 UTC


120459Z 1206/1215 01015KT 9999 SCT020
TEMPO 1206/1215 6000 RA BKN014
TEMPO 1206/1207 04020G30KT
PROB30
TEMPO 1206/1208 BKN009
ATIS : +44 1851 707 444



MET'MAP, your aeronautical weather chart ! - Copyright ORBIFLY December 2007 - Disclaimer

ORBIFLY MET'MAP TEAM :

Programming & Development : Alexandra Zaïnal
Concept & Development : Baudouin d'Aumeries
Co-Development & Prog : Marc-Olivier Méhu
Technical & hardware support : Manuel Goepfert

Contact : metmap@orbifly.com




SOURCES & CREDITS :

   NOAA